createdAt,value
2023-08-29T00:01:48.267Z,20.53
2023-08-29T00:04:52.558Z,20.52
2023-08-29T00:07:57.299Z,20.51
2023-08-29T00:11:04.096Z,20.48
2023-08-29T00:14:08.324Z,20.47
2023-08-29T00:17:12.418Z,20.46
2023-08-29T00:20:16.618Z,20.44
2023-08-29T00:23:21.076Z,20.44
2023-08-29T00:26:26.295Z,20.41
2023-08-29T00:29:30.610Z,20.39
2023-08-29T00:32:34.787Z,20.36
2023-08-29T00:35:40.968Z,20.34
2023-08-29T00:38:45.204Z,20.33
2023-08-29T00:41:50.615Z,20.34
2023-08-29T00:44:54.778Z,20.32
2023-08-29T00:48:00.225Z,20.29
2023-08-29T00:51:04.395Z,20.26
2023-08-29T00:54:12.394Z,20.25
2023-08-29T00:57:16.888Z,20.24
2023-08-29T01:00:22.920Z,20.23
2023-08-29T01:03:27.491Z,20.23
2023-08-29T01:06:33.775Z,20.22
2023-08-29T01:09:39.085Z,20.24
2023-08-29T01:13:05.638Z,20.26
2023-08-29T01:16:12.236Z,20.30
2023-08-29T01:19:16.880Z,20.31
2023-08-29T01:22:28.348Z,20.33
2023-08-29T01:25:52.193Z,20.33
2023-08-29T01:28:59.175Z,20.32
2023-08-29T01:32:04.521Z,20.31
2023-08-29T01:35:11.673Z,20.31
2023-08-29T01:38:19.461Z,20.32
2023-08-29T01:41:23.696Z,20.31
2023-08-29T01:44:27.896Z,20.28
2023-08-29T01:47:32.374Z,20.25
2023-08-29T01:50:37.614Z,20.24
2023-08-29T01:53:43.506Z,20.24
2023-08-29T01:56:49.223Z,20.22
2023-08-29T01:59:54.277Z,20.18
2023-08-29T02:02:58.898Z,20.16
2023-08-29T02:06:03.589Z,20.14
2023-08-29T02:09:08.176Z,20.12
2023-08-29T02:12:14.150Z,20.13
2023-08-29T02:15:19.879Z,20.12
2023-08-29T02:18:26.481Z,20.11
2023-08-29T02:21:30.879Z,20.10
2023-08-29T02:24:35.174Z,20.10
2023-08-29T02:27:39.484Z,20.08
2023-08-29T02:30:43.850Z,20.07
2023-08-29T02:33:48.363Z,20.08
2023-08-29T02:36:54.038Z,20.07
2023-08-29T02:39:59.337Z,20.06
2023-08-29T02:43:05.045Z,20.04
2023-08-29T02:46:09.264Z,20.02
2023-08-29T02:49:13.987Z,20.02
2023-08-29T02:52:18.113Z,20.02
2023-08-29T02:55:22.335Z,20.01
2023-08-29T02:58:26.552Z,19.99
2023-08-29T03:01:30.646Z,19.99
2023-08-29T03:04:34.777Z,19.99
2023-08-29T03:07:41.071Z,19.97
2023-08-29T03:10:45.175Z,19.97
2023-08-29T03:13:49.464Z,19.96
2023-08-29T03:16:54.730Z,19.96
2023-08-29T03:19:59.677Z,19.96
2023-08-29T03:23:04.089Z,19.97
2023-08-29T03:26:11.348Z,19.97
2023-08-29T03:29:15.891Z,19.97
2023-08-29T03:32:20.081Z,19.96
2023-08-29T03:35:24.407Z,19.92
2023-08-29T03:38:28.994Z,19.92
2023-08-29T03:41:33.251Z,19.93
2023-08-29T03:44:37.358Z,19.98
2023-08-29T03:47:42.485Z,20.03
2023-08-29T03:50:46.623Z,20.08
2023-08-29T03:53:50.886Z,20.09
2023-08-29T03:56:55.645Z,20.12
2023-08-29T04:00:00.442Z,20.14
2023-08-29T04:03:07.516Z,20.17
2023-08-29T04:06:12.563Z,20.20
2023-08-29T04:09:17.326Z,20.21
2023-08-29T04:12:21.439Z,20.21
2023-08-29T04:15:25.979Z,20.23
2023-08-29T04:18:33.871Z,20.25
2023-08-29T04:21:38.212Z,20.29
2023-08-29T04:24:42.601Z,20.32
2023-08-29T04:27:47.963Z,20.33
2023-08-29T04:30:52.622Z,20.31
2023-08-29T04:33:57.603Z,20.26
2023-08-29T04:37:01.789Z,20.22
2023-08-29T04:40:11.667Z,20.22
2023-08-29T04:43:15.797Z,20.23
2023-08-29T04:46:19.901Z,20.23
2023-08-29T04:49:24.192Z,20.25
2023-08-29T04:52:29.317Z,20.27
2023-08-29T04:55:33.770Z,20.29
2023-08-29T04:58:38.122Z,20.32
2023-08-29T05:01:42.780Z,20.36
2023-08-29T05:04:48.873Z,20.40
2023-08-29T05:07:53.825Z,20.43
2023-08-29T05:11:03.098Z,20.46
2023-08-29T05:14:07.334Z,20.48
2023-08-29T05:17:11.696Z,20.48
2023-08-29T05:20:16.624Z,20.48
2023-08-29T05:23:20.956Z,20.48
2023-08-29T05:26:25.345Z,20.49
2023-08-29T05:29:29.471Z,20.49
2023-08-29T05:32:33.617Z,20.51
2023-08-29T05:35:37.818Z,20.56
2023-08-29T05:38:42.046Z,20.60
2023-08-29T05:41:46.588Z,20.64
2023-08-29T05:44:50.857Z,20.67
2023-08-29T05:47:55.177Z,20.71
2023-08-29T05:50:59.551Z,20.73
2023-08-29T05:54:04.193Z,20.77
2023-08-29T05:57:08.697Z,20.80
2023-08-29T06:00:16.052Z,20.86
2023-08-29T06:03:22.887Z,20.91
2023-08-29T06:06:27.527Z,20.94
2023-08-29T06:09:34.560Z,20.99
2023-08-29T06:12:39.139Z,21.05
2023-08-29T06:15:44.243Z,21.11
2023-08-29T06:18:48.590Z,21.18
2023-08-29T06:21:52.823Z,21.25
2023-08-29T06:24:56.911Z,21.29
2023-08-29T06:28:01.305Z,21.32
2023-08-29T06:31:08.602Z,21.37
2023-08-29T06:34:13.394Z,21.42
2023-08-29T06:37:17.608Z,21.46
2023-08-29T06:40:21.788Z,21.50
2023-08-29T06:43:26.261Z,21.54
2023-08-29T06:46:30.416Z,21.55
2023-08-29T06:49:35.209Z,21.56
2023-08-29T06:52:39.439Z,21.62
2023-08-29T06:55:43.485Z,21.68
2023-08-29T06:58:47.749Z,21.71
2023-08-29T07:01:53.797Z,21.73
2023-08-29T07:04:58.257Z,21.75
2023-08-29T07:08:02.795Z,21.80
2023-08-29T07:11:08.126Z,21.88
2023-08-29T07:14:12.299Z,21.94
2023-08-29T07:17:16.633Z,21.99
2023-08-29T07:20:21.180Z,22.02
2023-08-29T07:23:26.790Z,22.05
2023-08-29T07:26:30.977Z,22.10
2023-08-29T07:29:35.715Z,22.14
2023-08-29T07:32:40.368Z,22.19
2023-08-29T07:35:47.053Z,22.22
2023-08-29T07:38:51.324Z,22.26
2023-08-29T07:41:55.584Z,22.30
2023-08-29T07:44:59.687Z,22.33
2023-08-29T07:48:05.663Z,22.37
2023-08-29T07:51:10.017Z,22.39
2023-08-29T07:54:14.153Z,22.43
2023-08-29T07:57:18.315Z,22.49
2023-08-29T08:00:22.550Z,22.55
2023-08-29T08:03:26.627Z,22.58
2023-08-29T08:06:31.380Z,22.60
2023-08-29T08:09:35.561Z,22.63
2023-08-29T08:12:40.655Z,22.67
2023-08-29T08:15:44.831Z,22.72
2023-08-29T08:18:49.152Z,22.76
2023-08-29T08:21:53.287Z,22.80
2023-08-29T08:24:57.392Z,22.84
2023-08-29T08:28:01.848Z,22.88
2023-08-29T08:31:07.993Z,22.90
2023-08-29T08:34:13.085Z,22.92
2023-08-29T08:37:17.382Z,22.92
2023-08-29T08:40:22.025Z,22.92
2023-08-29T08:43:27.546Z,22.91
2023-08-29T08:46:32.235Z,22.92
2023-08-29T08:49:39.309Z,22.92
2023-08-29T08:52:46.060Z,22.93
2023-08-29T08:55:51.431Z,22.95
2023-08-29T08:58:55.935Z,22.96
2023-08-29T09:02:00.354Z,22.99
2023-08-29T09:05:05.678Z,23.03
2023-08-29T09:08:11.188Z,23.06
2023-08-29T09:11:19.476Z,23.11
2023-08-29T09:14:25.001Z,23.18
2023-08-29T09:17:29.289Z,23.21
2023-08-29T09:20:34.730Z,23.27
2023-08-29T09:23:39.162Z,23.34
2023-08-29T09:26:43.460Z,23.43
2023-08-29T09:29:47.647Z,23.51
2023-08-29T09:32:52.936Z,23.58
2023-08-29T09:35:57.588Z,23.67
2023-08-29T09:39:03.733Z,23.70
2023-08-29T09:42:12.810Z,23.68
2023-08-29T09:45:17.671Z,23.71
2023-08-29T09:48:22.403Z,23.77
2023-08-29T09:51:29.718Z,23.81
2023-08-29T09:54:34.672Z,23.83
2023-08-29T09:57:40.801Z,23.84
2023-08-29T10:00:45.743Z,23.88
2023-08-29T10:03:50.670Z,23.93
2023-08-29T10:06:57.856Z,23.99
2023-08-29T10:10:02.947Z,24.05
2023-08-29T10:13:09.278Z,24.09
2023-08-29T10:16:15.369Z,24.13
2023-08-29T10:19:21.224Z,24.19
2023-08-29T10:22:29.496Z,24.25
2023-08-29T10:25:36.381Z,24.31
2023-08-29T10:28:41.734Z,24.38
2023-08-29T10:31:47.192Z,24.45
2023-08-29T10:34:52.558Z,24.53
2023-08-29T10:37:56.803Z,24.57
2023-08-29T10:41:03.561Z,24.61
2023-08-29T10:44:29.748Z,24.60
2023-08-29T10:47:46.736Z,24.61
2023-08-29T10:51:09.397Z,24.57
2023-08-29T10:54:15.020Z,24.52
2023-08-29T10:57:30.207Z,24.53
2023-08-29T11:00:43.297Z,24.57
2023-08-29T11:03:50.044Z,24.60
2023-08-29T11:06:56.372Z,24.64
2023-08-29T11:10:33.192Z,24.69
2023-08-29T11:13:56.778Z,24.75
2023-08-29T11:17:13.793Z,24.82
2023-08-29T11:20:18.491Z,24.88
2023-08-29T11:23:23.507Z,24.92
2023-08-29T11:26:31.272Z,24.96
2023-08-29T11:29:38.455Z,25.02
2023-08-29T11:32:42.854Z,25.09
2023-08-29T11:35:47.455Z,25.15
2023-08-29T11:38:52.818Z,25.22
2023-08-29T11:42:07.969Z,25.28
2023-08-29T11:45:44.841Z,25.32
2023-08-29T11:48:45.755Z,25.34
2023-08-29T11:51:50.061Z,25.37
2023-08-29T11:54:55.206Z,25.41
2023-08-29T11:57:59.698Z,25.42
2023-08-29T12:01:06.132Z,25.43
2023-08-29T12:04:10.414Z,25.48
2023-08-29T12:07:15.670Z,25.53
2023-08-29T12:10:20.819Z,25.55
2023-08-29T12:13:25.101Z,25.60
2023-08-29T12:16:29.765Z,25.68
2023-08-29T12:19:36.137Z,25.71
2023-08-29T12:22:49.476Z,25.70
2023-08-29T12:25:57.158Z,25.68
2023-08-29T12:29:01.300Z,25.64
2023-08-29T12:32:06.100Z,25.61
2023-08-29T12:35:11.576Z,25.58
2023-08-29T12:38:16.079Z,25.55
2023-08-29T12:41:20.751Z,25.56
2023-08-29T12:44:25.045Z,25.57
2023-08-29T12:47:29.269Z,25.60
2023-08-29T12:50:33.445Z,25.61
2023-08-29T12:53:37.561Z,25.61
2023-08-29T12:56:41.821Z,25.61
2023-08-29T12:59:46.554Z,25.63
2023-08-29T13:02:51.117Z,25.62
2023-08-29T13:05:55.772Z,25.58
2023-08-29T13:09:00.353Z,25.59
2023-08-29T13:12:07.912Z,25.67
2023-08-29T13:15:13.812Z,25.76
2023-08-29T13:18:18.140Z,25.83
2023-08-29T13:21:22.284Z,25.89
2023-08-29T13:24:26.440Z,25.93
2023-08-29T13:27:30.703Z,25.96
2023-08-29T13:30:35.022Z,25.98
2023-08-29T13:33:39.451Z,26.00
2023-08-29T13:36:43.735Z,26.03
2023-08-29T13:39:55.902Z,26.07
2023-08-29T13:43:00.085Z,26.10
2023-08-29T13:46:05.268Z,26.09
2023-08-29T13:49:10.088Z,26.10
2023-08-29T13:52:14.279Z,26.13
2023-08-29T13:55:18.374Z,26.18
2023-08-29T13:58:22.694Z,26.16
2023-08-29T14:01:27.150Z,26.12
2023-08-29T14:04:31.542Z,26.05
2023-08-29T14:07:35.692Z,26.00
2023-08-29T14:10:40.083Z,25.93
2023-08-29T14:13:44.362Z,25.87
2023-08-29T14:16:48.649Z,25.79
2023-08-29T14:19:53.884Z,25.70
2023-08-29T14:23:02.030Z,25.63
2023-08-29T14:26:10.620Z,25.57
2023-08-29T14:29:14.681Z,25.53
2023-08-29T14:32:19.735Z,25.48
2023-08-29T14:35:23.793Z,25.42
2023-08-29T14:38:27.795Z,25.35
2023-08-29T14:41:31.778Z,25.31
2023-08-29T14:44:35.746Z,25.27
2023-08-29T14:47:39.689Z,25.22
2023-08-29T14:50:46.461Z,25.19
2023-08-29T14:53:51.375Z,25.12
2023-08-29T14:56:55.356Z,25.08
2023-08-29T14:59:59.440Z,25.03
2023-08-29T15:03:08.797Z,25.01
2023-08-29T15:06:16.699Z,24.97
2023-08-29T15:09:20.632Z,24.95
2023-08-29T15:12:24.626Z,24.94
2023-08-29T15:15:29.447Z,24.94
2023-08-29T15:18:33.953Z,24.93
2023-08-29T15:21:37.993Z,24.93
2023-08-29T15:24:42.081Z,24.92
2023-08-29T15:27:45.998Z,24.91
2023-08-29T15:30:53.408Z,24.90
2023-08-29T15:33:57.385Z,24.86
2023-08-29T15:37:05.615Z,24.83
2023-08-29T15:40:13.584Z,24.79
2023-08-29T15:43:18.684Z,24.73
2023-08-29T15:46:22.861Z,24.70
2023-08-29T15:49:27.693Z,24.68
2023-08-29T15:52:31.762Z,24.64
2023-08-29T15:55:36.305Z,24.58
2023-08-29T15:58:41.377Z,24.53
2023-08-29T16:01:45.362Z,24.48
2023-08-29T16:04:49.376Z,24.44
2023-08-29T16:07:53.696Z,24.41
2023-08-29T16:10:57.563Z,24.37
2023-08-29T16:14:02.426Z,24.31
2023-08-29T16:17:06.386Z,24.25
2023-08-29T16:20:11.393Z,24.22
2023-08-29T16:23:15.327Z,24.19
2023-08-29T16:26:22.892Z,24.19
2023-08-29T16:29:26.878Z,24.19
2023-08-29T16:32:30.971Z,24.18
2023-08-29T16:35:35.663Z,24.15
2023-08-29T16:38:39.871Z,24.12
2023-08-29T16:41:43.884Z,24.11
2023-08-29T16:44:48.164Z,24.07
2023-08-29T16:47:54.826Z,24.02
2023-08-29T16:50:58.911Z,23.99
2023-08-29T16:54:03.146Z,23.95
2023-08-29T16:57:07.150Z,23.91
2023-08-29T17:00:12.080Z,23.86
2023-08-29T17:03:16.190Z,23.83
2023-08-29T17:06:20.515Z,23.78
2023-08-29T17:09:24.581Z,23.73
2023-08-29T17:12:28.565Z,23.69
2023-08-29T17:15:32.666Z,23.67
2023-08-29T17:18:36.648Z,23.61
2023-08-29T17:21:41.273Z,23.55
2023-08-29T17:24:46.955Z,23.50
2023-08-29T17:27:50.939Z,23.46
2023-08-29T17:30:55.329Z,23.43
2023-08-29T17:33:59.389Z,23.41
2023-08-29T17:37:03.543Z,23.37
2023-08-29T17:40:09.151Z,23.35
2023-08-29T17:43:13.161Z,23.31
2023-08-29T17:46:18.186Z,23.26
2023-08-29T17:49:22.314Z,23.23
2023-08-29T17:52:26.263Z,23.21
2023-08-29T17:55:30.297Z,23.19
2023-08-29T17:58:34.310Z,23.14
2023-08-29T18:01:38.543Z,23.09
2023-08-29T18:04:46.154Z,23.03
2023-08-29T18:07:50.297Z,22.98
2023-08-29T18:10:55.015Z,22.94
2023-08-29T18:13:59.007Z,22.90
2023-08-29T18:17:03.117Z,22.84
2023-08-29T18:20:07.387Z,22.80
2023-08-29T18:23:11.429Z,22.76
2023-08-29T18:26:15.433Z,22.71
2023-08-29T18:29:19.391Z,22.64
2023-08-29T18:32:23.416Z,22.56
2023-08-29T18:35:27.376Z,22.50
2023-08-29T18:38:32.773Z,22.46
2023-08-29T18:41:36.786Z,22.39
2023-08-29T18:44:40.790Z,22.31
2023-08-29T18:47:44.965Z,22.24
2023-08-29T18:50:49.034Z,22.15
2023-08-29T18:53:52.964Z,22.09
2023-08-29T18:56:56.916Z,22.03
2023-08-29T19:00:00.983Z,21.99
2023-08-29T19:03:05.167Z,21.97
2023-08-29T19:06:11.257Z,21.95
2023-08-29T19:09:17.142Z,21.93
2023-08-29T19:12:21.086Z,21.89
2023-08-29T19:15:25.682Z,21.87
2023-08-29T19:18:29.890Z,21.85
2023-08-29T19:21:33.864Z,21.79
2023-08-29T19:24:37.896Z,21.71
2023-08-29T19:27:42.106Z,21.67
2023-08-29T19:30:46.258Z,21.65
2023-08-29T19:33:50.282Z,21.63
2023-08-29T19:36:54.269Z,21.62
2023-08-29T19:39:58.203Z,21.61
2023-08-29T19:43:05.384Z,21.57
2023-08-29T19:46:09.498Z,21.54
2023-08-29T19:49:14.248Z,21.50
2023-08-29T19:52:18.565Z,21.48
2023-08-29T19:55:23.100Z,21.47
2023-08-29T19:58:27.238Z,21.44
2023-08-29T20:01:32.794Z,21.40
2023-08-29T20:04:36.843Z,21.35
2023-08-29T20:07:41.130Z,21.34
2023-08-29T20:10:45.290Z,21.35
2023-08-29T20:13:49.249Z,21.35
2023-08-29T20:16:53.940Z,21.35
2023-08-29T20:19:58.076Z,21.36
2023-08-29T20:23:02.440Z,21.34
2023-08-29T20:26:06.771Z,21.29
2023-08-29T20:29:10.719Z,21.25
2023-08-29T20:32:14.736Z,21.23
2023-08-29T20:35:19.241Z,21.22
2023-08-29T20:38:23.318Z,21.23
2023-08-29T20:41:27.559Z,21.25
2023-08-29T20:44:32.097Z,21.25
2023-08-29T20:47:37.032Z,21.23
2023-08-29T20:50:44.531Z,21.20
2023-08-29T20:53:48.582Z,21.10
2023-08-29T20:56:52.766Z,21.03
2023-08-29T20:59:56.728Z,21.01
2023-08-29T21:03:00.780Z,21.01
2023-08-29T21:06:05.051Z,21.02
2023-08-29T21:09:11.732Z,21.03
2023-08-29T21:12:17.243Z,21.01
2023-08-29T21:15:21.245Z,20.99
2023-08-29T21:18:25.351Z,20.98
2023-08-29T21:21:29.366Z,20.99
2023-08-29T21:24:34.124Z,21.00
2023-08-29T21:27:38.111Z,20.99
2023-08-29T21:30:42.136Z,20.98
2023-08-29T21:33:46.251Z,20.97
2023-08-29T21:36:51.307Z,20.93
2023-08-29T21:39:55.514Z,20.88
2023-08-29T21:42:59.419Z,20.87
2023-08-29T21:46:07.453Z,20.85
2023-08-29T21:49:11.554Z,20.85
2023-08-29T21:52:15.588Z,20.88
2023-08-29T21:55:20.416Z,20.90
2023-08-29T21:58:25.149Z,20.88
2023-08-29T22:01:29.142Z,20.87
2023-08-29T22:04:33.169Z,20.84
2023-08-29T22:07:37.741Z,20.84
2023-08-29T22:10:41.919Z,20.85
2023-08-29T22:13:46.917Z,20.88
2023-08-29T22:16:50.972Z,20.88
2023-08-29T22:19:54.946Z,20.85
2023-08-29T22:22:59.004Z,20.81
2023-08-29T22:26:07.554Z,20.82
2023-08-29T22:29:11.532Z,20.83
2023-08-29T22:32:15.720Z,20.84
2023-08-29T22:35:20.725Z,20.83
2023-08-29T22:38:25.044Z,20.83
2023-08-29T22:41:34.549Z,20.83
2023-08-29T22:44:44.067Z,20.82
2023-08-29T22:47:51.479Z,20.80
2023-08-29T22:50:55.539Z,20.80
2023-08-29T22:53:59.668Z,20.79
2023-08-29T22:57:03.899Z,20.82
2023-08-29T23:00:14.152Z,20.82
2023-08-29T23:03:18.503Z,20.82
2023-08-29T23:06:23.146Z,20.81
2023-08-29T23:09:27.560Z,20.78
2023-08-29T23:12:31.563Z,20.73
2023-08-29T23:15:35.607Z,20.67
2023-08-29T23:18:40.628Z,20.59
2023-08-29T23:21:45.236Z,20.47
2023-08-29T23:24:49.578Z,20.40
2023-08-29T23:27:53.539Z,20.40
2023-08-29T23:30:57.619Z,20.41
2023-08-29T23:34:01.658Z,20.41
2023-08-29T23:37:05.798Z,20.42
2023-08-29T23:40:10.838Z,20.44
2023-08-29T23:43:15.844Z,20.45
2023-08-29T23:46:20.690Z,20.46
2023-08-29T23:49:26.488Z,20.48
2023-08-29T23:52:30.510Z,20.48
2023-08-29T23:55:35.217Z,20.47
2023-08-29T23:58:39.215Z,20.45
